createdAt,value
2022-10-14T00:01:25.708Z,8.00
2022-10-14T00:03:55.961Z,9.00
2022-10-14T00:06:30.516Z,9.25
2022-10-14T00:09:02.394Z,8.00
2022-10-14T00:11:34.011Z,9.75
2022-10-14T00:14:05.996Z,9.00
2022-10-14T00:16:37.227Z,7.75
2022-10-14T00:19:06.882Z,8.25
2022-10-14T00:21:37.755Z,10.00
2022-10-14T00:24:07.067Z,8.50
2022-10-14T00:26:38.842Z,10.50
2022-10-14T00:29:10.493Z,8.00
2022-10-14T00:31:38.913Z,7.00
2022-10-14T00:34:07.330Z,7.00
2022-10-14T00:36:35.703Z,8.50
2022-10-14T00:39:04.055Z,9.50
2022-10-14T00:41:36.060Z,9.00
2022-10-14T00:44:16.146Z,7.50
2022-10-14T00:46:46.900Z,9.00
2022-10-14T00:49:30.309Z,9.75
2022-10-14T00:52:14.746Z,10.00
2022-10-14T00:54:47.355Z,10.00
2022-10-14T00:57:16.928Z,11.00
2022-10-14T00:59:45.442Z,8.00
2022-10-14T01:02:13.909Z,9.00
2022-10-14T01:04:45.748Z,12.00
2022-10-14T01:07:30.325Z,9.50
2022-10-14T01:10:21.998Z,9.25
2022-10-14T01:13:09.884Z,11.25
2022-10-14T01:15:44.351Z,12.25
2022-10-14T01:18:49.716Z,11.25
2022-10-14T01:21:34.425Z,10.00
2022-10-14T01:24:21.296Z,9.75
2022-10-14T01:27:30.920Z,11.25
2022-10-14T01:30:13.217Z,13.00
2022-10-14T01:33:16.143Z,13.25
2022-10-14T01:36:11.024Z,10.75
2022-10-14T01:38:48.306Z,14.50
2022-10-14T01:41:33.778Z,12.25
2022-10-14T01:44:07.668Z,12.25
2022-10-14T01:46:39.435Z,12.25
2022-10-14T01:49:21.378Z,12.00
2022-10-14T01:51:53.842Z,11.00
2022-10-14T01:54:36.281Z,11.00
2022-10-14T01:57:10.052Z,11.00
2022-10-14T01:59:41.645Z,11.00
2022-10-14T02:02:10.031Z,13.75
2022-10-14T02:04:38.699Z,12.50
2022-10-14T02:07:31.080Z,13.25
2022-10-14T02:10:02.201Z,11.00
2022-10-14T02:12:52.334Z,10.75
2022-10-14T02:15:26.895Z,12.50
2022-10-14T02:17:58.228Z,13.00
2022-10-14T02:20:41.137Z,11.50
2022-10-14T02:23:23.274Z,10.75
2022-10-14T02:25:52.597Z,11.25
2022-10-14T02:28:24.587Z,9.25
2022-10-14T02:30:58.802Z,8.00
2022-10-14T02:33:34.249Z,10.50
2022-10-14T02:36:04.983Z,9.25
2022-10-14T02:38:34.699Z,8.00
2022-10-14T02:41:08.807Z,8.75
2022-10-14T02:43:37.341Z,9.00
2022-10-14T02:46:06.725Z,9.00
2022-10-14T02:48:35.273Z,9.50
2022-10-14T02:51:03.703Z,9.00
2022-10-14T02:53:32.087Z,7.00
2022-10-14T02:56:00.458Z,8.50
2022-10-14T02:58:28.792Z,9.00
2022-10-14T03:00:57.380Z,8.00
2022-10-14T03:03:25.832Z,9.00
2022-10-14T03:05:54.196Z,9.00
2022-10-14T03:08:22.548Z,7.25
2022-10-14T03:10:50.986Z,8.25
2022-10-14T03:13:19.360Z,8.50
2022-10-14T03:15:51.651Z,8.00
2022-10-14T03:18:20.534Z,7.75
2022-10-14T03:20:49.243Z,8.50
2022-10-14T03:23:30.397Z,9.00
2022-10-14T03:25:58.830Z,6.75
2022-10-14T03:28:27.344Z,8.25
2022-10-14T03:30:55.775Z,7.75
2022-10-14T03:33:26.097Z,10.00
2022-10-14T03:35:55.124Z,9.25
2022-10-14T03:38:23.639Z,11.00
2022-10-14T03:40:52.141Z,8.00
2022-10-14T03:43:20.515Z,6.00
2022-10-14T03:45:48.978Z,8.50
2022-10-14T03:48:17.314Z,9.00
2022-10-14T03:50:45.757Z,8.50
2022-10-14T03:53:14.231Z,7.00
2022-10-14T03:55:42.667Z,8.50
2022-10-14T03:58:13.181Z,8.00
2022-10-14T04:00:41.724Z,7.00
2022-10-14T04:03:12.384Z,9.00
2022-10-14T04:05:40.877Z,9.25
2022-10-14T04:08:09.405Z,6.00
2022-10-14T04:10:38.020Z,6.75
2022-10-14T04:13:06.432Z,7.00
2022-10-14T04:15:36.865Z,8.75
2022-10-14T04:18:05.427Z,7.25
2022-10-14T04:20:34.444Z,7.00
2022-10-14T04:23:02.925Z,8.00
2022-10-14T04:25:31.350Z,6.75
2022-10-14T04:27:59.677Z,6.75
2022-10-14T04:30:28.077Z,6.00
2022-10-14T04:32:56.403Z,7.75
2022-10-14T04:35:24.786Z,7.00
2022-10-14T04:37:53.495Z,8.50
2022-10-14T04:40:26.600Z,6.50
2022-10-14T04:42:59.523Z,7.00
2022-10-14T04:45:28.016Z,8.00
2022-10-14T04:47:56.450Z,7.00
2022-10-14T04:50:25.045Z,8.50
2022-10-14T04:52:53.459Z,7.00
2022-10-14T04:55:21.844Z,8.00
2022-10-14T04:57:50.259Z,6.00
2022-10-14T05:00:18.945Z,5.75
2022-10-14T05:02:47.527Z,6.75
2022-10-14T05:05:16.193Z,7.75
2022-10-14T05:07:45.296Z,8.00
2022-10-14T05:10:13.765Z,7.00
2022-10-14T05:12:42.121Z,5.75
2022-10-14T05:15:11.071Z,6.50
2022-10-14T05:17:40.242Z,8.00
2022-10-14T05:20:09.134Z,7.50
2022-10-14T05:22:37.625Z,7.00
2022-10-14T05:25:06.681Z,7.25
2022-10-14T05:27:35.086Z,7.25
2022-10-14T05:30:03.757Z,6.75
2022-10-14T05:32:32.441Z,8.25
2022-10-14T05:35:00.783Z,6.00
2022-10-14T05:37:29.237Z,8.00
2022-10-14T05:39:57.645Z,7.00
2022-10-14T05:42:26.021Z,6.00
2022-10-14T05:44:54.552Z,6.50
2022-10-14T05:47:23.235Z,7.00
2022-10-14T05:49:51.693Z,8.25
2022-10-14T05:52:20.398Z,7.00
2022-10-14T05:54:49.129Z,7.00
2022-10-14T05:57:17.531Z,7.00
2022-10-14T05:59:45.955Z,6.75
2022-10-14T06:02:14.368Z,6.00
2022-10-14T06:04:43.483Z,5.50
2022-10-14T06:07:11.857Z,6.00
2022-10-14T06:09:40.653Z,6.00
2022-10-14T06:12:09.413Z,5.25
2022-10-14T06:14:39.547Z,5.00
2022-10-14T06:17:08.890Z,6.75
2022-10-14T06:19:37.384Z,5.00
2022-10-14T06:22:05.836Z,6.00
2022-10-14T06:24:34.256Z,7.00
2022-10-14T06:27:02.708Z,4.50
2022-10-14T06:29:38.576Z,4.00
2022-10-14T06:32:09.142Z,4.00
2022-10-14T06:34:37.953Z,4.75
2022-10-14T06:37:06.259Z,5.00
2022-10-14T06:39:34.657Z,6.00
2022-10-14T06:42:04.244Z,5.25
2022-10-14T06:44:32.609Z,6.00
2022-10-14T06:47:01.189Z,6.25
2022-10-14T06:49:29.631Z,6.00
2022-10-14T06:51:57.994Z,5.00
2022-10-14T06:54:26.417Z,4.75
2022-10-14T06:56:54.880Z,4.75
2022-10-14T06:59:23.352Z,5.00
2022-10-14T07:01:51.780Z,4.25
2022-10-14T07:04:20.190Z,4.75
2022-10-14T07:06:48.604Z,4.75
2022-10-14T07:09:16.942Z,5.75
2022-10-14T07:11:45.414Z,3.75
2022-10-14T07:14:13.878Z,4.50
2022-10-14T07:16:44.737Z,4.50
2022-10-14T07:19:13.565Z,5.50
2022-10-14T07:21:43.785Z,4.25
2022-10-14T07:24:15.857Z,4.00
2022-10-14T07:26:44.336Z,5.00
2022-10-14T07:29:21.139Z,5.25
2022-10-14T07:31:49.648Z,4.25
2022-10-14T07:34:18.123Z,4.75
2022-10-14T07:36:46.636Z,6.00
2022-10-14T07:39:15.217Z,3.25
2022-10-14T07:41:43.695Z,4.00
2022-10-14T07:44:14.868Z,4.50
2022-10-14T07:46:45.526Z,4.00
2022-10-14T07:49:19.879Z,3.75
2022-10-14T07:51:49.630Z,6.00
2022-10-14T07:54:24.272Z,5.00
2022-10-14T07:56:52.816Z,4.00
2022-10-14T07:59:22.439Z,3.25
2022-10-14T08:01:52.319Z,4.00
2022-10-14T08:04:21.666Z,5.00
2022-10-14T08:06:50.571Z,4.00
2022-10-14T08:09:20.080Z,3.00
2022-10-14T08:11:49.120Z,3.25
2022-10-14T08:14:18.026Z,4.00
2022-10-14T08:16:47.882Z,5.00
2022-10-14T08:19:16.483Z,2.00
2022-10-14T08:21:56.103Z,3.25
2022-10-14T08:24:24.501Z,3.00
2022-10-14T08:26:55.634Z,3.25
2022-10-14T08:29:24.329Z,3.50
2022-10-14T08:31:55.120Z,2.25
2022-10-14T08:34:25.316Z,3.75
2022-10-14T08:36:53.820Z,3.00
2022-10-14T08:39:23.016Z,3.00
2022-10-14T08:42:09.926Z,3.00
2022-10-14T08:44:57.332Z,3.00
2022-10-14T08:47:33.463Z,2.50
2022-10-14T08:50:22.793Z,4.25
2022-10-14T08:53:11.309Z,3.00
2022-10-14T08:55:47.823Z,3.25
2022-10-14T08:58:40.592Z,3.00
2022-10-14T09:01:36.161Z,3.00
2022-10-14T09:04:08.357Z,3.00
2022-10-14T09:06:42.104Z,2.50
2022-10-14T09:09:20.381Z,3.00
2022-10-14T09:11:55.655Z,3.50
2022-10-14T09:14:33.610Z,3.50
2022-10-14T09:17:10.301Z,2.25
2022-10-14T09:19:59.698Z,2.25
2022-10-14T09:22:29.377Z,2.00
2022-10-14T09:24:59.999Z,3.00
2022-10-14T09:27:30.653Z,3.00
2022-10-14T09:30:02.589Z,3.75
2022-10-14T09:32:41.836Z,3.50
2022-10-14T09:35:18.312Z,4.00
2022-10-14T09:37:46.806Z,5.00
2022-10-14T09:40:33.382Z,3.50
2022-10-14T09:43:12.105Z,3.00
2022-10-14T09:45:54.349Z,3.25
2022-10-14T09:48:54.263Z,4.50
2022-10-14T09:51:43.834Z,4.00
2022-10-14T09:57:24.294Z,3.75
2022-10-14T10:00:03.276Z,3.50
2022-10-14T10:02:44.511Z,4.00
2022-10-14T10:05:25.731Z,3.75
2022-10-14T10:08:18.309Z,6.00
2022-10-14T10:11:16.128Z,5.00
2022-10-14T10:13:49.171Z,5.75
2022-10-14T10:16:27.715Z,4.00
2022-10-14T10:18:58.226Z,4.25
2022-10-14T10:21:31.494Z,5.00
2022-10-14T10:24:02.417Z,5.75
2022-10-14T10:26:34.277Z,5.00
2022-10-14T10:29:06.022Z,3.50
2022-10-14T10:31:49.337Z,4.00
2022-10-14T10:34:29.685Z,4.00
2022-10-14T10:37:10.663Z,6.00
2022-10-14T10:40:07.778Z,4.50
2022-10-14T10:42:41.658Z,4.00
2022-10-14T10:45:24.974Z,4.00
2022-10-14T10:48:09.081Z,3.75
2022-10-14T10:50:58.463Z,5.00
2022-10-14T10:53:50.812Z,4.75
2022-10-14T10:56:47.942Z,4.00
2022-10-14T10:59:45.635Z,5.25
2022-10-14T11:02:14.684Z,4.50
2022-10-14T11:05:08.133Z,4.00
2022-10-14T11:08:06.615Z,4.50
2022-10-14T11:11:05.042Z,5.00
2022-10-14T11:13:44.090Z,5.25
2022-10-14T11:16:27.537Z,4.25
2022-10-14T11:19:25.449Z,5.50
2022-10-14T11:22:17.653Z,5.75
2022-10-14T11:25:30.282Z,6.50
2022-10-14T11:28:18.057Z,5.25
2022-10-14T11:30:50.315Z,4.25
2022-10-14T11:33:31.632Z,5.00
2022-10-14T11:36:17.088Z,5.50
2022-10-14T11:38:51.019Z,6.25
2022-10-14T11:41:55.053Z,5.75
2022-10-14T11:44:23.391Z,5.25
2022-10-14T11:46:57.459Z,6.00
2022-10-14T11:49:33.969Z,5.00
2022-10-14T11:52:08.681Z,6.25
2022-10-14T11:54:49.408Z,5.75
2022-10-14T11:57:31.098Z,6.25
2022-10-14T12:00:05.379Z,7.25
2022-10-14T12:03:01.474Z,7.75
2022-10-14T12:05:53.015Z,5.00
2022-10-14T12:08:33.225Z,7.75
2022-10-14T12:11:07.329Z,7.00
2022-10-14T12:13:59.394Z,7.75
2022-10-14T12:16:28.999Z,9.75
2022-10-14T12:18:59.231Z,8.25
2022-10-14T12:21:33.492Z,10.75
2022-10-14T12:24:09.121Z,6.75
2022-10-14T12:26:57.975Z,9.25
2022-10-14T12:29:33.983Z,8.25
2022-10-14T12:32:05.784Z,9.75
2022-10-14T12:34:41.179Z,8.25
2022-10-14T12:37:38.958Z,9.00
2022-10-14T12:40:07.939Z,11.00
2022-10-14T12:43:04.072Z,8.00
2022-10-14T12:45:36.405Z,8.00
2022-10-14T12:48:17.432Z,12.00
2022-10-14T12:50:47.840Z,11.00
2022-10-14T12:53:34.927Z,9.00
2022-10-14T12:56:06.136Z,11.75
2022-10-14T12:58:37.567Z,12.00
2022-10-14T13:01:24.444Z,12.75
2022-10-14T13:03:56.358Z,11.75
2022-10-14T13:06:43.443Z,11.75
2022-10-14T13:09:18.115Z,10.00
2022-10-14T13:12:06.589Z,11.50
2022-10-14T13:15:02.135Z,10.75
2022-10-14T13:17:49.731Z,9.75
2022-10-14T13:20:36.630Z,11.00
2022-10-14T13:23:23.765Z,11.00
2022-10-14T13:25:53.963Z,10.25
2022-10-14T13:28:40.148Z,10.75
2022-10-14T13:31:44.779Z,9.00
2022-10-14T13:34:35.880Z,12.00
2022-10-14T13:37:22.479Z,12.00
2022-10-14T13:39:50.881Z,10.75
2022-10-14T13:42:33.321Z,9.25
2022-10-14T13:45:17.756Z,10.00
2022-10-14T13:47:50.097Z,10.75
2022-10-14T13:50:23.697Z,12.00
2022-10-14T13:52:59.052Z,10.75
2022-10-14T13:55:28.501Z,12.00
2022-10-14T13:58:14.586Z,12.75
2022-10-14T14:00:50.097Z,11.75
2022-10-14T14:03:24.994Z,10.50
2022-10-14T14:05:54.677Z,9.25
2022-10-14T14:08:41.042Z,13.00
2022-10-14T14:11:16.789Z,11.00
2022-10-14T14:14:15.763Z,11.25
2022-10-14T14:16:56.699Z,10.00
2022-10-14T14:19:38.029Z,12.00
2022-10-14T14:22:20.835Z,12.00
2022-10-14T14:24:50.520Z,9.50
2022-10-14T14:27:25.080Z,11.00
2022-10-14T14:29:55.408Z,11.50
2022-10-14T14:32:31.943Z,12.00
2022-10-14T14:35:13.630Z,11.75
2022-10-14T14:37:55.529Z,12.50
2022-10-14T14:40:31.061Z,11.50
2022-10-14T14:43:04.949Z,12.50
2022-10-14T14:45:43.772Z,12.75
2022-10-14T14:48:16.679Z,12.50
2022-10-14T14:50:46.788Z,11.25
2022-10-14T14:53:30.710Z,12.50
2022-10-14T14:56:14.773Z,13.25
2022-10-14T14:58:51.644Z,13.00
2022-10-14T15:01:26.390Z,14.50
2022-10-14T15:04:12.714Z,13.00
2022-10-14T15:06:51.596Z,16.00
2022-10-14T15:09:32.037Z,13.75
2022-10-14T15:12:04.109Z,16.75
2022-10-14T15:14:48.643Z,16.50
2022-10-14T15:17:38.779Z,18.00
2022-10-14T15:20:07.238Z,18.25
2022-10-14T15:22:44.571Z,16.50
2022-10-14T15:25:14.355Z,14.50
2022-10-14T15:27:46.640Z,14.75
2022-10-14T15:30:23.686Z,15.00
2022-10-14T15:32:54.026Z,14.50
2022-10-14T15:35:23.942Z,16.00
2022-10-14T15:37:53.155Z,17.50
2022-10-14T15:40:24.700Z,16.75
2022-10-14T15:42:53.112Z,16.75
2022-10-14T15:45:22.808Z,15.00
2022-10-14T15:47:59.138Z,13.50
2022-10-14T15:50:28.029Z,16.00
2022-10-14T15:52:57.834Z,16.00
2022-10-14T15:55:35.122Z,15.75
2022-10-14T15:58:04.327Z,16.25
2022-10-14T16:00:33.429Z,17.00
2022-10-14T16:03:01.894Z,14.50
2022-10-14T16:05:30.872Z,15.50
2022-10-14T16:07:59.692Z,14.50
2022-10-14T16:10:29.444Z,16.25
2022-10-14T16:13:00.537Z,14.50
2022-10-14T16:15:47.612Z,15.50
2022-10-14T16:18:16.625Z,16.75
2022-10-14T16:20:45.491Z,14.50
2022-10-14T16:23:18.721Z,12.00
2022-10-14T16:25:50.176Z,16.00
2022-10-14T16:28:20.383Z,13.00
2022-10-14T16:30:50.329Z,13.00
2022-10-14T16:33:21.022Z,13.00
2022-10-14T16:35:55.463Z,13.50
2022-10-14T16:38:25.170Z,12.50
2022-10-14T16:40:58.167Z,11.75
2022-10-14T16:43:27.751Z,12.25
2022-10-14T16:46:00.790Z,10.50
2022-10-14T16:48:30.265Z,11.50
2022-10-14T16:50:58.650Z,11.00
2022-10-14T16:53:44.534Z,11.00
2022-10-14T16:56:40.317Z,11.25
2022-10-14T16:59:11.367Z,9.50
2022-10-14T17:01:41.007Z,10.50
2022-10-14T17:04:10.606Z,11.00
2022-10-14T17:06:39.028Z,10.25
2022-10-14T17:09:07.723Z,11.50
2022-10-14T17:11:36.257Z,9.25
2022-10-14T17:14:05.085Z,9.75
2022-10-14T17:16:33.465Z,9.00
2022-10-14T17:19:02.401Z,8.50
2022-10-14T17:21:30.885Z,6.50
2022-10-14T17:24:03.085Z,9.50
2022-10-14T17:26:33.282Z,8.25
2022-10-14T17:29:02.059Z,7.50
2022-10-14T17:31:31.573Z,7.00
2022-10-14T17:34:01.210Z,8.00
2022-10-14T17:36:31.763Z,6.00
2022-10-14T17:39:00.974Z,7.25
2022-10-14T17:41:31.471Z,6.50
2022-10-14T17:44:02.400Z,7.75
2022-10-14T17:46:32.433Z,7.50
2022-10-14T17:49:04.851Z,7.25
2022-10-14T17:51:33.990Z,6.50
2022-10-14T17:54:05.071Z,6.00
2022-10-14T17:56:35.556Z,6.00
2022-10-14T17:59:07.227Z,6.50
2022-10-14T18:01:37.874Z,7.00
2022-10-14T18:06:48.338Z,5.75
2022-10-14T18:09:16.846Z,7.00
2022-10-14T18:14:34.991Z,5.50
2022-10-14T18:17:03.696Z,6.00
2022-10-14T18:19:32.071Z,6.25
2022-10-14T18:22:00.545Z,7.00
2022-10-14T18:24:28.998Z,5.25
2022-10-14T18:26:57.314Z,5.00
2022-10-14T18:29:25.987Z,5.00
2022-10-14T18:31:54.302Z,6.50
2022-10-14T18:34:26.442Z,5.00
2022-10-14T18:36:55.207Z,6.75
2022-10-14T18:39:23.572Z,6.00
2022-10-14T18:41:51.874Z,6.00
2022-10-14T18:44:20.348Z,6.25
2022-10-14T18:46:48.774Z,7.00
2022-10-14T18:49:17.431Z,6.00
2022-10-14T18:51:46.739Z,7.00
2022-10-14T18:54:18.853Z,5.50
2022-10-14T18:56:48.716Z,7.25
2022-10-14T18:59:20.172Z,6.75
2022-10-14T19:01:53.971Z,7.75
2022-10-14T19:04:25.012Z,5.00
2022-10-14T19:06:53.546Z,4.75
2022-10-14T19:09:25.467Z,5.50
2022-10-14T19:11:54.331Z,5.75
2022-10-14T19:14:23.314Z,5.75
2022-10-14T19:16:51.805Z,4.75
2022-10-14T19:19:21.414Z,6.00
2022-10-14T19:21:52.065Z,5.25
2022-10-14T19:24:20.499Z,6.00
2022-10-14T19:26:49.747Z,5.75
2022-10-14T19:29:18.286Z,4.00
2022-10-14T19:31:46.990Z,6.00
2022-10-14T19:34:17.453Z,4.75
2022-10-14T19:36:46.936Z,6.00
2022-10-14T19:39:17.931Z,6.00
2022-10-14T19:41:48.272Z,6.00
2022-10-14T19:44:17.686Z,6.50
2022-10-14T19:46:46.931Z,5.00
2022-10-14T19:49:16.812Z,5.75
2022-10-14T19:51:45.298Z,7.75
2022-10-14T19:54:14.562Z,6.50
2022-10-14T19:56:43.184Z,6.00
2022-10-14T19:59:14.407Z,5.00
2022-10-14T20:01:43.104Z,5.00
2022-10-14T20:04:11.721Z,6.00
2022-10-14T20:06:41.100Z,6.00
2022-10-14T20:09:11.683Z,6.50
2022-10-14T20:11:40.047Z,5.00
2022-10-14T20:14:08.549Z,5.25
2022-10-14T20:16:36.924Z,6.00
2022-10-14T20:19:05.358Z,6.00
2022-10-14T20:21:33.733Z,6.00
2022-10-14T20:24:02.115Z,5.75
2022-10-14T20:26:30.512Z,6.00
2022-10-14T20:28:59.346Z,5.00
2022-10-14T20:31:27.784Z,6.00
2022-10-14T20:33:58.030Z,5.75
2022-10-14T20:36:26.477Z,6.75
2022-10-14T20:38:54.938Z,6.75
2022-10-14T20:41:26.912Z,5.00
2022-10-14T20:43:56.274Z,4.50
2022-10-14T20:46:26.047Z,7.00
2022-10-14T20:48:59.161Z,6.25
2022-10-14T20:51:28.223Z,6.25
2022-10-14T20:54:02.017Z,6.75
2022-10-14T20:56:35.657Z,7.25
2022-10-14T20:59:09.287Z,6.00
2022-10-14T21:01:38.611Z,5.50
2022-10-14T21:04:08.674Z,5.75
2022-10-14T21:06:39.590Z,7.50
2022-10-14T21:09:08.680Z,6.75
2022-10-14T21:11:37.085Z,5.75
2022-10-14T21:14:05.654Z,7.00
2022-10-14T21:16:36.310Z,7.00
2022-10-14T21:19:10.341Z,6.00
2022-10-14T21:21:43.122Z,5.50
2022-10-14T21:24:15.606Z,6.00
2022-10-14T21:26:44.279Z,5.75
2022-10-14T21:29:12.774Z,6.00
2022-10-14T21:31:41.748Z,6.00
2022-10-14T21:34:12.059Z,5.25
2022-10-14T21:36:41.422Z,5.00
2022-10-14T21:39:13.727Z,6.00
2022-10-14T21:41:43.638Z,6.00
2022-10-14T21:44:16.911Z,8.00
2022-10-14T21:46:45.375Z,5.75
2022-10-14T21:49:14.024Z,7.00
2022-10-14T21:51:42.974Z,6.00
2022-10-14T21:54:15.283Z,6.50
2022-10-14T21:56:43.728Z,5.50
2022-10-14T21:59:13.417Z,8.00
2022-10-14T22:01:42.935Z,7.00
2022-10-14T22:04:12.608Z,8.00
2022-10-14T22:06:41.143Z,7.50
2022-10-14T22:09:09.607Z,6.00
2022-10-14T22:11:40.718Z,7.00
2022-10-14T22:14:13.621Z,7.75
2022-10-14T22:16:42.248Z,5.00
2022-10-14T22:19:12.768Z,5.00
2022-10-14T22:21:42.971Z,7.00
2022-10-14T22:24:11.638Z,6.25
2022-10-14T22:26:41.488Z,6.00
2022-10-14T22:29:18.509Z,6.50
2022-10-14T22:31:47.994Z,5.50
2022-10-14T22:34:18.554Z,5.00
2022-10-14T22:36:47.174Z,5.00
2022-10-14T22:39:17.951Z,6.00
2022-10-14T22:41:46.283Z,6.25
2022-10-14T22:44:14.689Z,5.00
2022-10-14T22:46:43.082Z,6.50
2022-10-14T22:49:11.815Z,5.00
2022-10-14T22:51:41.619Z,4.50
2022-10-14T22:54:11.207Z,6.00
2022-10-14T22:56:40.478Z,4.75
2022-10-14T22:59:11.961Z,5.25
2022-10-14T23:01:42.763Z,4.50
2022-10-14T23:04:12.164Z,5.25
2022-10-14T23:06:44.469Z,5.00
2022-10-14T23:09:12.872Z,5.50
2022-10-14T23:11:41.466Z,5.75
2022-10-14T23:14:09.950Z,7.25
2022-10-14T23:16:39.961Z,6.00
2022-10-14T23:19:08.316Z,6.00
2022-10-14T23:21:38.720Z,6.00
2022-10-14T23:24:09.520Z,6.00
2022-10-14T23:26:38.255Z,6.00
2022-10-14T23:29:12.489Z,6.00
2022-10-14T23:31:41.814Z,6.00
2022-10-14T23:34:14.083Z,6.00
2022-10-14T23:36:43.300Z,5.00
2022-10-14T23:39:12.019Z,6.00
2022-10-14T23:41:40.584Z,5.00
2022-10-14T23:44:09.149Z,5.00
2022-10-14T23:46:37.663Z,4.00
2022-10-14T23:49:21.195Z,4.50
2022-10-14T23:51:53.800Z,4.00
2022-10-14T23:54:22.354Z,6.25
2022-10-14T23:56:50.757Z,7.00
2022-10-14T23:59:19.280Z,5.25
